Lake Charles, LA

3:41 AM CDT on August 30, 2014 (GMT -0500)
MesoWest WODLWN LA US UPR | Change Station
CLOSE
Current Station
Personal Weather Station
Location: Fenton, LA
Elevation: 29 ft
Nearby Weather Stations
Active Advisory: Flash Flood Watch

Elev 29 ft 30.33 °N, 92.94 °W | Updated 2 hours ago

Overcast
Overcast
74 °F
Feels Like 72 °F
N
Wind Variable Wind from North
Gusts 0.0 mph

Today
High -- | Low -- °F
--% Chance of Precip.
Yesterday
High -- | Low -- °F
Precip. -- in
6:48 AM 7:37 PM
Waxing Crescent, 20% visible
Pressure 29.95 in
Visibility 1.0 miles
Clouds Overcast 400 ft
Heat Index 72 °F
Dew Point Not available.
Humidity Not available.
Rainfall -9999.00 in
Snow Depth Not available.
UV 0 out of 12
Pollen 6.90 out of 12
Air Quality Not available.
Flu Activity Not available.
METAR KCWF 300835Z AUTO 13010G16KT 050V160 1SM +RA OVC004 24/23 A2995 RMK AO2 LTG DSNT E AND SW P0021 T02450233

More Conditions Fewer Conditions

Pressure 29.95 in
Visibility 1.0 miles
Clouds Overcast 400 ft
Heat Index 72 °F
Dew Point Not available.
Humidity Not available.
Rainfall -9999.00 in
Snow Depth Not available.
UV 0 out of 12
Pollen 6.90 out of 12
Air Quality Not available.
Flu Activity Not available.
METAR KCWF 300835Z AUTO 13010G16KT 050V160 1SM +RA OVC004 24/23 A2995 RMK AO2 LTG DSNT E AND SW P0021 T02450233

More Conditions Fewer Conditions

Nowcast | as of 3:27 am CDT on August 30, 2014

Through 5 am...light to moderate rains will continue to fall across southeast Texas and southwest Louisiana as tropical laden moisture fuels generous rains. This activity will continue to expand north and east through the rest of the morning. Hourly rainfall totals will range from one quarter of an inch to 1 1/2 inches with the deeper areas of convection.

×

10-Day Weather Forecast

Almanac

Astronomy

Aug. 30, 2014 Rise Set
Actual Time 6:48 AM CDT 7:37 PM CDT
Civil Twilight 6:23 AM CDT 8:02 PM CDT
Nautical Twilight 5:55 AM CDT 8:30 PM CDT
Astronomical Twilight 5:25 AM CDT 9:00 PM CDT
Moon 11:13 AM CDT 10:36 PM CDT
Length of Visible Light 13h 38m
Length of Day
12h 49m
Tomorrow will be 1m 45s shorter.
Waxing Crescent, 20% of the Moon is Illuminated
Today
Waxing Crescent
Sep 2
First Quarter
Sep 8
Full
Sep 15
Last Quarter
Sep 24
New

Community

WunderPhotos

Upload Photos

1,748,474 photos uploaded!

Nearby

Snow Depth

Station Depth Elevation
No new snow has been reported.

Earthquake Activity

City Distance Mag. Time & Date
No recent earthquake activity has been reported nearby.
Minimum magnitude displayed is 2.5.

Coastal Water Temperatures

Place Temperature
Calcasieu Pass, LA 82.9 °F
Sabine Pass North, TX 82.9 °F
Port Arthur, TX 84.9 °F
Fresh Water Canal Locks, LA 82.0 °F
Rollover Pass, TX 80.1 °F

Nearby Weather Stations